Hutsonville, IL (62433)

5:15 AM CDT on July 29, 2016 (GMT -0500)
Robinson Municipal | | Change Station

Elev 463 ft 39.02 °N, 87.65 °W | Updated 20 minutes ago

Fog
Fog
68 °F
Feels Like 68 °F
N
0
Wind Variable Wind from North

Today
High -- | Low -- °F
--% Chance of Precip.
Yesterday
High -- | Low -- °F
Precip. -- in
Pressure 29.91 in
Visibility 0.2 miles
Clouds Overcast 200 ft
Dew Point 68 °F
Humidity 100%
Rainfall 0.00 in
Snow Depth Not available.
5:48 AM 8:04 PM
Waning Crescent, 23% visible
METAR KRSV 290955Z AUTO 00000KT 1/4SM FG OVC002 20/20 A2991 RMK AO2 T02020202
Pressure 29.91 in
Visibility 0.2 miles
Clouds Overcast 200 ft
Dew Point 68 °F
Humidity 100%
Rainfall 0.00 in
Snow Depth Not available.
5:48 AM 8:04 PM
Waning Crescent, 23% visible
METAR KRSV 290955Z AUTO 00000KT 1/4SM FG OVC002 20/20 A2991 RMK AO2 T02020202

10-Day Weather Forecast

Almanac

Astronomy

Jul. 29, 2016 Rise Set
Actual Time
Civil Twilight
Nautical Twilight
Astronomical Twilight
Moon
Length of Visible Light
Length of Day
Tomorrow will be .
, % of the Moon is Illuminated

Today's Extremes

State Highs State Lows

Community

WunderPhotos

Upload Photos

1,928,310 photos uploaded!

WunderBlog® & News

Nearby

Air Quality

  Air Quality AQ Index Pollutant
Not available.

Snow Depth

Station Depth Elevation

Earthquake Activity

City Distance Mag. Time & Date
Minimum magnitude displayed is 2.5.

Coastal Water Temperatures

Place Temperature

Stations

Nearby Weather Stations

Station Location Temp. Windchill Dew Point Humidity Wind Precip. Elev Updated Type
                   

Watches & Warnings

There are currently no watches in effect.